Time;durP1;ratioP1;P1;durP2;ratioP2;P2;SDS_P1;SDS_P2;PMS_P1;PMS_P2;Temp;Humidity;BMP_temperature;BMP_pressure;BME280_temperature;BME280_humidity;BME280_pressure;Samples;Min_cycle;Max_cycle;Signal;HPM_P1;HPM_P2
2023/05/10 00:02:17;;;;;;;6.73;4.33;;;16.60;99.90;;;;;;5011821;28;20033;-73
2023/05/10 00:04:44;;;;;;;7.72;4.78;;;16.50;99.90;;;;;;5012001;28;20280;-73
2023/05/10 00:07:10;;;;;;;9.02;4.70;;;16.50;99.90;;;;;;5011564;28;20021;-73
2023/05/10 00:09:36;;;;;;;11.07;4.13;;;16.50;99.90;;;;;;5011455;28;20513;-72
2023/05/10 00:12:02;;;;;;;6.45;4.53;;;16.50;99.90;;;;;;5011370;28;20469;-73
2023/05/10 00:14:28;;;;;;;9.07;4.83;;;16.50;99.90;;;;;;5011231;28;20052;-74
2023/05/10 00:16:54;;;;;;;10.43;4.73;;;16.40;99.90;;;;;;5026419;28;20315;-73
2023/05/10 00:19:20;;;;;;;8.27;4.57;;;16.40;99.90;;;;;;5011371;28;20030;-74
2023/05/10 00:21:47;;;;;;;6.45;4.28;;;16.30;99.90;;;;;;5011159;28;20030;-72
2023/05/10 00:24:13;;;;;;;9.30;4.63;;;16.30;99.90;;;;;;5011115;28;20054;-73
2023/05/10 00:26:39;;;;;;;10.57;4.83;;;16.30;99.90;;;;;;5011556;28;20030;-73
2023/05/10 00:29:05;;;;;;;6.23;4.30;;;16.30;99.90;;;;;;5011208;28;20555;-73
2023/05/10 00:31:31;;;;;;;9.43;4.40;;;16.30;99.90;;;;;;5010838;28;20265;-72
2023/05/10 00:33:57;;;;;;;9.17;4.33;;;16.30;99.90;;;;;;5011012;28;20292;-73
2023/05/10 00:36:23;;;;;;;8.67;4.77;;;16.40;99.90;;;;;;5011249;28;20284;-73
2023/05/10 00:38:49;;;;;;;6.93;4.50;;;16.30;99.90;;;;;;5011017;28;20025;-73
2023/05/10 00:41:15;;;;;;;11.33;5.03;;;16.40;99.90;;;;;;5011016;28;20100;-72
2023/05/10 00:43:41;;;;;;;7.10;4.20;;;16.40;99.90;;;;;;5010891;28;20136;-73
2023/05/10 00:46:07;;;;;;;10.00;4.57;;;16.40;99.90;;;;;;5010818;28;20069;-72
2023/05/10 00:48:34;;;;;;;6.97;4.93;;;16.40;99.90;;;;;;5010981;28;20496;-72
2023/05/10 00:51:01;;;;;;;8.60;5.10;;;16.40;99.90;;;;;;5011074;28;20426;-73
2023/05/10 00:53:28;;;;;;;11.25;5.15;;;16.40;99.90;;;;;;5009847;28;20026;-73
2023/05/10 00:55:55;;;;;;;6.70;4.47;;;16.30;99.90;;;;;;5011042;28;20378;-72
2023/05/10 00:58:23;;;;;;;7.13;4.90;;;16.10;99.90;;;;;;5010766;28;20463;-73
2023/05/10 01:00:50;;;;;;;12.00;4.85;;;16.00;99.90;;;;;;5009129;28;20391;-73
2023/05/10 01:03:17;;;;;;;8.25;4.70;;;16.10;99.90;;;;;;5010581;28;20064;-73
2023/05/10 01:05:43;;;;;;;9.15;5.25;;;16.10;99.90;;;;;;5010679;28;20359;-72
2023/05/10 01:08:09;;;;;;;8.83;4.53;;;16.20;99.90;;;;;;5010805;28;20296;-72
2023/05/10 01:10:35;;;;;;;6.25;4.78;;;16.10;99.90;;;;;;5010722;28;20053;-72
2023/05/10 01:13:02;;;;;;;9.07;5.07;;;16.10;99.90;;;;;;5010267;28;20034;-71
2023/05/10 01:15:29;;;;;;;6.13;4.22;;;16.20;99.90;;;;;;5020755;28;20026;-72
2023/05/10 01:17:56;;;;;;;8.77;4.50;;;16.20;99.90;;;;;;5007023;28;20037;-73
2023/05/10 01:20:23;;;;;;;6.03;4.18;;;16.10;99.90;;;;;;5008008;28;20381;-71
2023/05/10 01:23:22;;;;;;;6.38;4.30;;;16.20;99.90;;;;;;5005491;28;20029;-72
2023/05/10 01:26:06;;;;;;;10.73;4.32;;;16.20;99.90;;;;;;5006183;28;20046;-71
2023/05/10 01:29:09;;;;;;;9.05;4.50;;;16.20;99.90;;;;;;5008256;28;20044;-71
2023/05/10 01:32:05;;;;;;;6.75;4.38;;;16.20;99.90;;;;;;4977366;28;20125;-70
2023/05/10 01:34:52;;;;;;;7.90;4.50;;;16.20;99.90;;;;;;5009082;28;20029;-71
2023/05/10 01:37:51;;;;;;;7.65;4.95;;;16.10;99.90;;;;;;5007699;28;20026;-73
2023/05/10 01:41:30;;;;;;;8.25;4.63;;;16.10;99.90;;;;;;5006450;28;20042;-72
2023/05/10 01:44:14;;;;;;;9.15;4.75;;;16.20;99.90;;;;;;4930420;29;20493;-73
2023/05/10 01:46:41;;;;;;;11.13;4.88;;;16.20;99.90;;;;;;4930494;29;20070;-72
2023/05/10 01:49:16;;;;;;;9.23;4.93;;;16.10;99.90;;;;;;4933442;29;20524;-72
2023/05/10 01:52:05;;;;;;;9.40;4.80;;;16.10;99.90;;;;;;4931042;29;20086;-68
2023/05/10 01:54:34;;;;;;;9.88;4.50;;;16.20;99.90;;;;;;4930778;29;20112;-72
2023/05/10 01:57:05;;;;;;;8.18;4.60;;;16.10;99.90;;;;;;4930618;29;20496;-71
2023/05/10 01:59:41;;;;;;;8.05;5.07;;;16.20;99.90;;;;;;4930487;29;20036;-72
2023/05/10 02:02:11;;;;;;;9.07;5.00;;;16.10;99.90;;;;;;4931098;29;20031;-73
2023/05/10 02:04:39;;;;;;;7.70;4.45;;;16.00;99.90;;;;;;4931963;29;20109;-73
2023/05/10 02:07:07;;;;;;;8.32;4.55;;;16.00;99.90;;;;;;4934014;29;20183;-74
2023/05/10 02:09:36;;;;;;;8.27;4.95;;;16.00;99.90;;;;;;4934344;29;20662;-74
2023/05/10 02:12:04;;;;;;;6.82;4.68;;;16.00;99.90;;;;;;4934004;29;20051;-72
2023/05/10 02:14:35;;;;;;;8.95;4.50;;;16.00;99.90;;;;;;4934042;29;20214;-71
2023/05/10 02:17:04;;;;;;;7.65;4.30;;;16.00;99.90;;;;;;4934146;29;20039;-72
2023/05/10 02:19:32;;;;;;;7.55;4.35;;;16.10;99.90;;;;;;4972887;28;20483;-73
2023/05/10 02:22:00;;;;;;;8.40;4.55;;;16.10;99.90;;;;;;5014252;28;20105;-73
2023/05/10 02:24:28;;;;;;;9.27;4.78;;;16.10;99.90;;;;;;5013531;28;20050;-72
2023/05/10 02:26:58;;;;;;;9.02;4.35;;;16.20;99.90;;;;;;5013810;28;20022;-73
2023/05/10 02:29:26;;;;;;;8.80;4.18;;;16.20;99.90;;;;;;5013435;28;20022;-73
2023/05/10 02:31:53;;;;;;;5.22;4.03;;;16.20;99.90;;;;;;5013105;28;20094;-72
2023/05/10 02:34:25;;;;;;;6.45;4.50;;;16.30;99.90;;;;;;5012975;28;20066;-73
2023/05/10 02:36:52;;;;;;;9.43;4.30;;;16.30;99.90;;;;;;5013796;28;20514;-72
2023/05/10 02:39:21;;;;;;;6.97;4.50;;;16.30;99.90;;;;;;5013257;28;20030;-73
2023/05/10 02:41:50;;;;;;;8.07;4.40;;;16.40;99.90;;;;;;5013079;28;20072;-73
2023/05/10 02:44:19;;;;;;;10.27;4.35;;;16.40;99.90;;;;;;5013031;28;20046;-72
2023/05/10 02:46:46;;;;;;;11.48;4.57;;;16.40;99.90;;;;;;5012898;28;20026;-72
2023/05/10 02:49:13;;;;;;;8.32;4.40;;;16.30;99.90;;;;;;5012830;28;20108;-72
2023/05/10 02:51:47;;;;;;;6.85;4.18;;;16.20;99.90;;;;;;5012878;28;20382;-72
2023/05/10 02:54:24;;;;;;;6.55;4.28;;;16.20;99.90;;;;;;5013037;28;20026;-73
2023/05/10 02:57:04;;;;;;;7.53;4.70;;;16.20;99.90;;;;;;5013631;28;20480;-72
2023/05/10 02:59:30;;;;;;;6.35;4.43;;;16.20;99.90;;;;;;5013542;28;20029;-72
2023/05/10 03:01:56;;;;;;;9.43;4.50;;;16.10;99.90;;;;;;5009266;28;20030;-71
2023/05/10 03:04:22;;;;;;;5.83;4.03;;;16.10;99.90;;;;;;5001546;28;20397;-71
2023/05/10 03:06:48;;;;;;;9.93;4.80;;;16.10;99.90;;;;;;5013136;28;20678;-73
2023/05/10 03:09:15;;;;;;;11.27;4.83;;;16.20;99.90;;;;;;4994267;28;20030;-71
2023/05/10 03:12:18;;;;;;;6.63;4.50;;;16.10;99.90;;;;;;4996966;28;20277;-69
2023/05/10 03:15:07;;;;;;;13.48;5.22;;;16.10;99.90;;;;;;5006638;28;20018;-71
2023/05/10 03:18:04;;;;;;;6.70;4.20;;;16.10;99.90;;;;;;5010436;28;20029;-71
2023/05/10 03:20:37;;;;;;;6.57;4.55;;;16.10;99.90;;;;;;5028486;28;20026;-72
2023/05/10 03:23:12;;;;;;;10.18;4.28;;;16.20;99.90;;;;;;5009820;28;20312;-71
2023/05/10 03:25:39;;;;;;;10.02;4.35;;;16.20;99.90;;;;;;5005310;28;20056;-73
2023/05/10 03:28:06;;;;;;;8.27;4.47;;;16.10;99.90;;;;;;5004358;28;20034;-73
2023/05/10 03:30:34;;;;;;;8.07;4.30;;;16.10;99.90;;;;;;5013844;28;20457;-72
2023/05/10 03:33:07;;;;;;;6.20;4.18;;;16.10;99.90;;;;;;5014048;28;20094;-72
2023/05/10 03:35:34;;;;;;;8.25;4.90;;;16.10;99.90;;;;;;5014082;28;20026;-72
2023/05/10 03:38:00;;;;;;;7.97;4.30;;;16.10;99.90;;;;;;5012141;28;20029;-72
2023/05/10 03:40:28;;;;;;;7.13;4.45;;;16.10;99.90;;;;;;5013560;28;20049;-72
2023/05/10 03:42:55;;;;;;;8.25;4.53;;;16.10;99.90;;;;;;5013460;28;20033;-72
2023/05/10 03:45:21;;;;;;;6.40;4.55;;;16.20;99.90;;;;;;5013580;28;20113;-74
2023/05/10 03:47:48;;;;;;;9.40;4.30;;;16.20;99.90;;;;;;5013555;28;20030;-73
2023/05/10 03:50:14;;;;;;;8.50;4.30;;;16.20;99.90;;;;;;5013858;28;20053;-74
2023/05/10 03:52:40;;;;;;;9.83;4.53;;;16.30;99.90;;;;;;5012115;28;20594;-75
2023/05/10 03:55:06;;;;;;;7.07;4.38;;;16.20;99.90;;;;;;5013418;28;20099;-74
2023/05/10 03:57:42;;;;;;;9.10;4.28;;;16.10;99.90;;;;;;5013658;28;20084;-70
2023/05/10 04:00:09;;;;;;;8.85;4.60;;;16.20;99.90;;;;;;5013374;28;20362;-74
2023/05/10 04:02:35;;;;;;;9.50;4.60;;;16.20;99.90;;;;;;5028203;28;20426;-73
2023/05/10 04:05:02;;;;;;;10.35;4.57;;;16.30;99.90;;;;;;5013343;28;20026;-74
2023/05/10 04:07:29;;;;;;;7.80;4.25;;;16.30;99.90;;;;;;5013007;28;20026;-75
2023/05/10 04:09:55;;;;;;;10.35;4.60;;;16.30;99.90;;;;;;5013244;28;20060;-74
2023/05/10 04:12:21;;;;;;;7.00;4.10;;;16.20;99.90;;;;;;5013094;28;20030;-73
2023/05/10 04:14:47;;;;;;;10.47;5.33;;;16.20;99.90;;;;;;5013224;28;20287;-74
2023/05/10 04:17:13;;;;;;;10.57;5.15;;;16.10;99.90;;;;;;5013313;28;20351;-73
2023/05/10 04:19:55;;;;;;;12.38;4.82;;;16.10;99.90;;;;;;5013684;28;20026;-72
2023/05/10 04:22:22;;;;;;;10.43;5.05;;;16.10;99.90;;;;;;5013634;28;20030;-82
2023/05/10 04:24:49;;;;;;;12.02;4.40;;;16.10;99.90;;;;;;5013437;28;20061;-76
2023/05/10 04:27:15;;;;;;;10.00;5.10;;;16.10;99.90;;;;;;5028544;28;20116;-77
2023/05/10 04:29:41;;;;;;;;;;;16.10;99.90;;;;;;5014207;28;20041;-76
2023/05/10 04:32:07;;;;;;;9.45;5.55;;;16.10;99.90;;;;;;5013770;28;19905;-76
2023/05/10 04:34:36;;;;;;;12.43;5.28;;;16.10;99.90;;;;;;5013498;28;20105;-81
2023/05/10 04:37:02;;;;;;;12.30;5.10;;;16.00;99.90;;;;;;5013937;28;20022;-82
2023/05/10 04:39:28;;;;;;;11.43;5.53;;;16.10;99.90;;;;;;5013707;28;20104;-80
2023/05/10 04:41:54;;;;;;;12.00;6.00;;;16.10;99.90;;;;;;5013899;28;20258;-80
2023/05/10 04:44:20;;;;;;;9.18;5.78;;;16.10;99.90;;;;;;5014234;28;20034;-81
2023/05/10 04:46:46;;;;;;;11.50;5.95;;;16.10;99.90;;;;;;5014840;28;20041;-81
2023/05/10 04:49:12;;;;;;;11.63;5.97;;;16.10;99.90;;;;;;5028236;28;20080;-81
2023/05/10 04:51:38;;;;;;;11.88;6.35;;;16.10;99.90;;;;;;5013620;28;20529;-81
2023/05/10 04:54:05;;;;;;;11.40;6.07;;;16.30;99.90;;;;;;5028204;28;20477;-81
2023/05/10 04:56:31;;;;;;;;;;;16.30;99.90;;;;;;5014026;28;20060;-80
2023/05/10 04:58:57;;;;;;;17.23;6.10;;;16.40;99.90;;;;;;5013684;28;20004;-80
2023/05/10 05:01:23;;;;;;;13.60;6.25;;;16.40;99.90;;;;;;5013307;28;20014;-80
2023/05/10 05:03:49;;;;;;;9.53;6.23;;;16.50;99.90;;;;;;5011537;28;20143;-80
2023/05/10 05:06:15;;;;;;;13.57;6.50;;;16.60;99.90;;;;;;5013024;28;20725;-80
2023/05/10 05:08:41;;;;;;;13.07;6.33;;;16.60;99.90;;;;;;5012602;28;20280;-78
2023/05/10 05:11:07;;;;;;;18.75;6.53;;;16.70;99.90;;;;;;5012600;28;20030;-78
2023/05/10 05:13:33;;;;;;;15.68;6.30;;;16.80;99.90;;;;;;5012201;28;20374;-80
2023/05/10 05:16:02;;;;;;;14.65;5.85;;;16.90;99.90;;;;;;5011963;28;20036;-79
2023/05/10 05:18:28;;;;;;;9.63;5.93;;;17.00;99.90;;;;;;5012772;28;20068;-77
2023/05/10 05:20:54;;;;;;;16.17;6.15;;;17.20;99.90;;;;;;5012710;28;20053;-79
2023/05/10 05:23:24;;;;;;;10.55;6.35;;;17.30;99.90;;;;;;5012540;28;20022;-78
2023/05/10 05:25:52;;;;;;;10.15;6.00;;;17.30;99.90;;;;;;5012185;28;20049;-78
2023/05/10 05:28:19;;;;;;;13.77;5.70;;;17.20;99.90;;;;;;5011325;28;20160;-79
2023/05/10 05:30:45;;;;;;;;;;;17.30;99.90;;;;;;5012076;28;20458;-79
2023/05/10 05:33:11;;;;;;;10.20;6.05;;;17.30;99.90;;;;;;5011873;28;19997;-79
2023/05/10 05:35:37;;;;;;;18.55;6.35;;;17.30;99.90;;;;;;5011811;28;20026;-78
2023/05/10 05:38:03;;;;;;;13.75;5.78;;;17.40;99.90;;;;;;5012210;28;20083;-79
2023/05/10 05:40:29;;;;;;;9.68;5.93;;;17.40;99.90;;;;;;5014351;28;20018;-80
2023/05/10 05:42:55;;;;;;;10.98;5.93;;;17.30;99.90;;;;;;5015430;28;20037;-78
2023/05/10 05:45:21;;;;;;;12.85;6.18;;;17.30;99.90;;;;;;5015376;28;20030;-78
2023/05/10 05:47:48;;;;;;;9.60;6.10;;;16.90;99.90;;;;;;5013890;28;20017;-78
2023/05/10 05:50:14;;;;;;;13.70;6.10;;;16.90;99.90;;;;;;5014696;28;20033;-78
2023/05/10 05:52:40;;;;;;;10.43;5.97;;;17.00;99.90;;;;;;5014908;28;20478;-78
2023/05/10 05:55:06;;;;;;;10.65;6.03;;;17.00;99.90;;;;;;5013639;28;20041;-79
2023/05/10 05:57:33;;;;;;;15.07;6.00;;;17.10;99.90;;;;;;5014422;28;20030;-78
2023/05/10 05:59:59;;;;;;;13.63;5.68;;;17.10;99.90;;;;;;5014387;28;20026;-79
2023/05/10 06:02:25;;;;;;;10.63;5.57;;;17.00;99.90;;;;;;5015036;28;20022;-78
2023/05/10 06:04:51;;;;;;;13.55;5.95;;;17.20;99.90;;;;;;5014604;28;20057;-79
2023/05/10 06:07:17;;;;;;;15.18;5.68;;;17.20;99.90;;;;;;5015371;28;20092;-81
2023/05/10 06:09:43;;;;;;;14.80;5.25;;;17.40;99.90;;;;;;5015333;28;20036;-81
2023/05/10 06:12:09;;;;;;;14.82;5.38;;;17.50;99.90;;;;;;5014663;28;20037;-79
2023/05/10 06:14:35;;;;;;;9.35;5.47;;;17.70;99.90;;;;;;5015388;28;20076;-78
2023/05/10 06:17:03;;;;;;;9.00;4.78;;;18.20;99.90;;;;;;5014742;28;20050;-81
2023/05/10 06:19:29;;;;;;;14.05;5.00;;;18.90;99.90;;;;;;5014630;28;20037;-81
2023/05/10 06:21:55;;;;;;;14.82;4.45;;;19.40;99.90;;;;;;5015361;28;20022;-82
2023/05/10 06:24:22;;;;;;;10.38;4.50;;;19.70;99.90;;;;;;5012926;28;20418;-83
2023/05/10 06:26:49;;;;;;;10.98;4.65;;;20.10;99.90;;;;;;5015360;28;20034;-81
2023/05/10 06:29:15;;;;;;;9.43;4.70;;;20.10;99.90;;;;;;5013760;28;20022;-82
2023/05/10 06:31:41;;;;;;;10.52;4.32;;;20.40;99.90;;;;;;5014561;28;20022;-80
2023/05/10 06:34:08;;;;;;;8.10;4.45;;;21.10;99.90;;;;;;5015221;28;20057;-79
2023/05/10 06:36:34;;;;;;;11.27;4.07;;;22.00;99.90;;;;;;5014540;28;20033;-80
2023/05/10 06:39:00;;;;;;;11.32;4.10;;;22.80;99.90;;;;;;5014464;28;20097;-82
2023/05/10 06:41:27;;;;;;;13.32;4.10;;;23.20;99.90;;;;;;5029272;28;20107;-77
2023/05/10 06:43:53;;;;;;;7.57;3.90;;;23.20;99.90;;;;;;5014630;28;20108;-81
2023/05/10 06:46:19;;;;;;;8.68;3.88;;;22.80;99.90;;;;;;5014592;28;20022;-82
2023/05/10 06:48:45;;;;;;;9.65;4.00;;;21.70;99.90;;;;;;5015285;28;20030;-80
2023/05/10 06:51:14;;;;;;;12.75;4.22;;;20.90;99.90;;;;;;5016070;28;20084;-78
2023/05/10 06:53:40;;;;;;;7.28;3.47;;;20.90;99.90;;;;;;5014628;28;20030;-79
2023/05/10 06:56:07;;;;;;;9.65;3.60;;;21.20;99.90;;;;;;5014606;28;20026;-78
2023/05/10 06:58:33;;;;;;;10.00;4.18;;;20.50;99.90;;;;;;5012597;28;20026;-79
2023/05/10 07:01:03;;;;;;;6.28;4.00;;;20.30;99.90;;;;;;5014106;28;20037;-79
2023/05/10 07:03:30;;;;;;;9.20;3.55;;;20.30;99.90;;;;;;5013348;28;20030;-80
2023/05/10 07:06:02;;;;;;;12.65;3.90;;;20.60;99.90;;;;;;5013658;28;20097;-79
2023/05/10 07:08:30;;;;;;;7.93;3.75;;;20.90;99.90;;;;;;5013760;28;20370;-77
2023/05/10 07:11:06;;;;;;;9.55;3.63;;;21.30;99.90;;;;;;5013567;28;20053;-77
2023/05/10 07:13:33;;;;;;;11.30;3.67;;;21.00;99.90;;;;;;5013701;28;20470;-79
2023/05/10 07:16:00;;;;;;;7.78;3.63;;;21.20;99.90;;;;;;5028486;28;20033;-78
2023/05/10 07:18:26;;;;;;;;;;;21.50;99.90;;;;;;5013703;28;20058;-77
2023/05/10 07:20:52;;;;;;;6.55;3.35;;;21.40;99.90;;;;;;5013445;28;19928;-77
2023/05/10 07:23:19;;;;;;;11.73;3.95;;;21.60;99.90;;;;;;5013330;28;20042;-79
2023/05/10 07:25:48;;;;;;;;;;;21.50;99.90;;;;;;5013334;28;20060;-78
2023/05/10 07:28:15;;;;;;;9.93;3.25;;;21.80;99.90;;;;;;5013290;28;20004;-77
2023/05/10 07:30:42;;;;;;;11.18;3.45;;;22.20;99.90;;;;;;5012562;28;20034;-79
2023/05/10 07:33:09;;;;;;;9.98;3.38;;;22.00;99.90;;;;;;5013082;28;20034;-78
2023/05/10 07:35:36;;;;;;;7.63;3.60;;;21.90;99.90;;;;;;5012812;28;20419;-78
2023/05/10 07:38:02;;;;;;;6.30;3.28;;;21.60;99.90;;;;;;5012935;28;20034;-78
2023/05/10 07:40:28;;;;;;;8.00;3.53;;;21.90;99.90;;;;;;5012733;28;20057;-77
2023/05/10 07:42:55;;;;;;;8.95;4.00;;;22.00;99.90;;;;;;5012802;28;20041;-79
2023/05/10 07:45:21;;;;;;;9.95;3.80;;;22.00;99.90;;;;;;5011014;28;20440;-79
2023/05/10 07:47:48;;;;;;;7.30;3.88;;;22.10;99.90;;;;;;5011380;28;20339;-78
2023/05/10 07:50:13;;;;;;;;;;;21.90;99.90;;;;;;5013749;28;20076;-77
2023/05/10 07:52:40;;;;;;;9.02;4.22;;;22.00;99.90;;;;;;5012493;28;19936;-78
2023/05/10 07:55:07;;;;;;;13.25;4.90;;;21.90;99.90;;;;;;5012342;28;20107;-79
2023/05/10 07:57:34;;;;;;;11.57;4.50;;;21.70;99.90;;;;;;5012090;28;20026;-78
2023/05/10 08:00:07;;;;;;;16.63;4.93;;;21.80;99.90;;;;;;5012121;28;20106;-79
2023/05/10 08:02:35;;;;;;;11.88;4.65;;;22.20;99.90;;;;;;5011405;28;20105;-78
2023/05/10 08:05:01;;;;;;;12.65;3.78;;;22.20;99.90;;;;;;5011589;28;20037;-78
2023/05/10 08:07:27;;;;;;;11.25;4.25;;;22.40;99.90;;;;;;5011864;28;20037;-78
2023/05/10 08:09:54;;;;;;;12.32;5.50;;;22.50;99.90;;;;;;5011692;28;20366;-80
2023/05/10 08:12:19;;;;;;;;;;;22.30;99.90;;;;;;5011700;28;20025;-80
2023/05/10 08:14:45;;;;;;;11.63;4.30;;;22.30;99.90;;;;;;5011628;28;19928;-79
2023/05/10 08:17:11;;;;;;;9.35;3.58;;;22.40;99.90;;;;;;5011441;28;20399;-78
2023/05/10 08:19:37;;;;;;;13.90;4.88;;;22.40;99.90;;;;;;5012116;28;20517;-77
2023/05/10 08:22:04;;;;;;;14.80;4.68;;;22.40;99.90;;;;;;5010560;28;20359;-78
2023/05/10 08:24:30;;;;;;;8.88;3.78;;;22.70;99.90;;;;;;5025857;28;20144;-78
2023/05/10 08:26:57;;;;;;;14.07;4.32;;;22.50;99.90;;;;;;5012390;28;20057;-79
2023/05/10 08:29:22;;;;;;;;;;;22.50;99.90;;;;;;5011086;28;20030;-79
2023/05/10 08:31:49;;;;;;;10.13;3.72;;;22.60;99.90;;;;;;5010112;28;19913;-78
2023/05/10 08:34:15;;;;;;;9.10;3.78;;;22.90;99.90;;;;;;5011836;28;20041;-79
2023/05/10 08:36:41;;;;;;;9.18;3.78;;;22.90;99.90;;;;;;5012202;28;20378;-80
2023/05/10 08:39:07;;;;;;;14.70;3.80;;;22.80;99.90;;;;;;5027129;28;20053;-78
2023/05/10 08:41:36;;;;;;;13.10;4.00;;;23.10;99.90;;;;;;5027010;28;20033;-79
2023/05/10 08:44:05;;;;;;;12.95;4.05;;;23.60;99.90;;;;;;5012135;28;20458;-79
2023/05/10 08:46:38;;;;;;;10.80;4.10;;;24.00;99.90;;;;;;5011946;28;20132;-78
2023/05/10 08:49:07;;;;;;;9.80;3.60;;;24.20;99.90;;;;;;5009852;28;20107;-79
2023/05/10 08:51:36;;;;;;;11.98;4.30;;;24.10;99.90;;;;;;5010316;28;20030;-78
2023/05/10 08:54:04;;;;;;;15.23;4.38;;;23.60;99.90;;;;;;5011785;28;20080;-77
2023/05/10 08:56:30;;;;;;;14.48;4.68;;;23.60;99.90;;;;;;5011658;28;20091;-78
2023/05/10 08:58:57;;;;;;;12.90;4.82;;;23.50;99.90;;;;;;5011502;28;20030;-78
2023/05/10 09:01:24;;;;;;;12.35;4.72;;;23.80;99.90;;;;;;5011098;28;20026;-79
2023/05/10 09:03:51;;;;;;;14.90;4.65;;;23.90;99.90;;;;;;5011390;28;20149;-77
2023/05/10 09:06:17;;;;;;;14.85;4.20;;;23.90;99.90;;;;;;5011453;28;20034;-78
2023/05/10 09:08:44;;;;;;;11.30;4.50;;;23.90;99.90;;;;;;5011603;28;20030;-78
2023/05/10 09:11:11;;;;;;;17.83;5.65;;;23.60;99.90;;;;;;5011135;28;20030;-79
2023/05/10 09:13:38;;;;;;;11.35;4.18;;;23.60;99.90;;;;;;5011193;28;20040;-76
2023/05/10 09:16:05;;;;;;;18.35;5.15;;;23.60;99.90;;;;;;5014538;28;20022;-79
2023/05/10 09:18:31;;;;;;;10.60;3.80;;;23.60;99.90;;;;;;5015472;28;20047;-78
2023/05/10 09:20:57;;;;;;;10.82;4.40;;;23.80;99.90;;;;;;5014796;28;20026;-79
2023/05/10 09:23:28;;;;;;;8.38;4.03;;;23.40;99.90;;;;;;5015188;28;20458;-78
2023/05/10 09:26:07;;;;;;;14.68;5.47;;;23.00;99.90;;;;;;5015042;28;20137;-79
2023/05/10 09:28:52;;;;;;;16.98;5.10;;;23.00;99.90;;;;;;5013157;28;20022;-80
2023/05/10 09:31:18;;;;;;;11.38;4.47;;;22.90;99.90;;;;;;5015196;28;20034;-79
2023/05/10 09:33:48;;;;;;;13.82;5.68;;;22.50;99.90;;;;;;5015035;28;20084;-79
2023/05/10 09:36:16;;;;;;;21.88;5.97;;;22.50;99.90;;;;;;5013486;28;20319;-78
2023/05/10 09:38:51;;;;;;;17.75;5.65;;;22.30;99.90;;;;;;5016376;28;20136;-79
2023/05/10 09:41:22;;;;;;;11.98;5.38;;;21.90;99.90;;;;;;5014523;28;20025;-78
2023/05/10 09:43:49;;;;;;;16.60;5.43;;;21.60;99.90;;;;;;5014899;28;20048;-78
2023/05/10 09:46:15;;;;;;;;;;;21.90;99.90;;;;;;5015148;28;20033;-78
2023/05/10 09:48:46;;;;;;;9.13;3.47;;;21.90;99.90;;;;;;5014315;28;20218;-78
2023/05/10 09:51:22;;;;;;;8.25;3.30;;;22.00;99.90;;;;;;5013110;28;20029;-81
2023/05/10 09:54:08;;;;;;;8.65;3.50;;;21.60;99.90;;;;;;5014936;28;20030;-77
2023/05/10 09:56:35;;;;;;;7.75;3.42;;;21.50;99.90;;;;;;5014486;28;20025;-78
2023/05/10 09:59:06;;;;;;;8.27;5.05;;;21.50;99.90;;;;;;5014527;28;20046;-79
2023/05/10 10:01:33;;;;;;;7.60;4.22;;;21.70;99.90;;;;;;5014406;28;20033;-80
2023/05/10 10:04:03;;;;;;;12.77;4.28;;;21.80;99.90;;;;;;5014695;28;20132;-78
2023/05/10 10:06:34;;;;;;;8.13;3.50;;;21.90;99.90;;;;;;5014146;28;20454;-79
2023/05/10 10:09:01;;;;;;;7.53;3.10;;;21.90;99.90;;;;;;5014545;28;20603;-79
2023/05/10 10:11:27;;;;;;;7.20;2.88;;;21.70;99.90;;;;;;5016414;28;20049;-77
2023/05/10 10:13:53;;;;;;;;;;;21.80;99.90;;;;;;5015562;28;20034;-79
2023/05/10 10:16:20;;;;;;;8.32;3.50;;;21.80;99.90;;;;;;5014416;28;20455;-77
2023/05/10 10:18:47;;;;;;;7.88;3.42;;;21.80;99.90;;;;;;5013942;28;20196;-79
2023/05/10 10:21:13;;;;;;;;;;;21.70;99.90;;;;;;5015017;28;20070;-77
2023/05/10 10:23:39;;;;;;;5.90;3.70;;;21.60;99.90;;;;;;5014987;28;19997;-79
2023/05/10 10:26:06;;;;;;;14.20;4.18;;;21.60;99.90;;;;;;5013949;28;20112;-79
2023/05/10 10:28:48;;;;;;;7.45;3.67;;;21.80;99.90;;;;;;5014522;28;20030;-78
2023/05/10 10:31:45;;;;;;;10.65;4.38;;;21.90;99.90;;;;;;5014479;28;20096;-79
2023/05/10 10:34:28;;;;;;;10.43;4.18;;;22.00;99.90;;;;;;5014626;28;20026;-78
2023/05/10 10:36:56;;;;;;;8.20;4.00;;;21.60;99.90;;;;;;5013161;28;20044;-80
2023/05/10 10:39:26;;;;;;;8.15;4.40;;;21.50;99.90;;;;;;5014457;28;20124;-79
2023/05/10 10:41:54;;;;;;;9.52;4.90;;;21.80;99.90;;;;;;5013027;28;20033;-79
2023/05/10 10:44:26;;;;;;;10.98;5.53;;;21.80;99.90;;;;;;5012829;28;20367;-78
2023/05/10 10:47:05;;;;;;;12.80;5.53;;;21.70;99.90;;;;;;5014030;28;20093;-78
2023/05/10 10:49:33;;;;;;;17.90;6.72;;;21.90;99.90;;;;;;5014101;28;20312;-79
2023/05/10 10:52:36;;;;;;;17.30;6.20;;;22.00;99.90;;;;;;5013620;28;20022;-78
2023/05/10 10:55:10;;;;;;;10.20;5.75;;;21.80;99.90;;;;;;4972040;28;20091;-79
2023/05/10 10:57:54;;;;;;;11.30;5.45;;;21.50;99.90;;;;;;4972513;28;20046;-78
2023/05/10 11:00:25;;;;;;;9.25;5.25;;;21.60;99.90;;;;;;4971884;28;20043;-79
2023/05/10 11:02:52;;;;;;;8.50;4.20;;;21.50;99.90;;;;;;4955486;28;20087;-79
2023/05/10 11:05:43;;;;;;;7.40;4.30;;;21.40;99.90;;;;;;4971494;28;20468;-79
2023/05/10 11:08:12;;;;;;;9.23;4.40;;;21.60;99.90;;;;;;4971813;28;20117;-78
2023/05/10 11:10:39;;;;;;;8.70;3.88;;;21.50;99.90;;;;;;4972036;28;20098;-77
2023/05/10 11:13:10;;;;;;;10.93;3.90;;;21.70;99.90;;;;;;4972020;28;20030;-78
2023/05/10 11:15:39;;;;;;;10.50;4.32;;;21.70;99.90;;;;;;4971599;28;20078;-79
2023/05/10 11:18:28;;;;;;;8.73;4.03;;;21.60;99.90;;;;;;4971940;28;20060;-78
2023/05/10 11:21:09;;;;;;;17.63;7.13;;;21.40;99.90;;;;;;4971972;28;20461;-78
2023/05/10 11:23:51;;;;;;;15.55;7.43;;;21.60;99.90;;;;;;4971635;28;20395;-77
2023/05/10 11:26:18;;;;;;;19.05;8.02;;;21.90;99.90;;;;;;4972311;28;20479;-78
2023/05/10 11:28:46;;;;;;;18.58;9.70;;;22.00;99.90;;;;;;4971757;28;20428;-78
2023/05/10 11:31:16;;;;;;;24.38;12.07;;;22.10;99.90;;;;;;4958497;28;20365;-78
2023/05/10 11:33:53;;;;;;;13.45;6.70;;;21.90;99.90;;;;;;4954695;28;20209;-78
2023/05/10 11:36:25;;;;;;;29.27;13.75;;;21.50;99.90;;;;;;4954642;28;20062;-78
2023/05/10 11:38:52;;;;;;;28.40;11.70;;;21.80;99.90;;;;;;4954665;28;20027;-79
2023/05/10 11:41:21;;;;;;;;;;;21.90;99.90;;;;;;4955185;28;20391;-77
2023/05/10 11:43:50;;;;;;;28.00;11.05;;;21.80;99.90;;;;;;4954492;28;19914;-77
2023/05/10 11:46:19;;;;;;;25.67;11.45;;;22.00;99.90;;;;;;4954414;28;20086;-77
2023/05/10 11:48:45;;;;;;;29.80;11.90;;;22.00;99.90;;;;;;4954462;28;20027;-77
2023/05/10 11:51:11;;;;;;;23.90;11.13;;;22.10;99.90;;;;;;4970481;28;20181;-79
2023/05/10 11:53:40;;;;;;;26.35;10.45;;;22.10;99.90;;;;;;4973625;28;20030;-78
2023/05/10 11:56:10;;;;;;;17.88;7.57;;;22.00;99.90;;;;;;4973567;28;20031;-79
2023/05/10 11:58:38;;;;;;;23.65;8.13;;;22.00;99.90;;;;;;4972126;28;20081;-78
2023/05/10 12:01:06;;;;;;;18.73;9.10;;;22.00;99.90;;;;;;4974134;28;20031;-78
2023/05/10 12:03:33;;;;;;;16.27;7.32;;;22.10;99.90;;;;;;4974332;28;20027;-79
2023/05/10 12:06:00;;;;;;;11.88;4.78;;;22.20;99.90;;;;;;4974745;28;20074;-80
2023/05/10 12:08:28;;;;;;;15.40;7.57;;;22.30;99.90;;;;;;4974342;28;20025;-79
2023/05/10 12:11:08;;;;;;;13.30;5.53;;;22.40;99.90;;;;;;4974345;28;20030;-80
2023/05/10 12:13:47;;;;;;;13.57;5.13;;;22.40;99.90;;;;;;4974427;28;20023;-79
2023/05/10 12:16:17;;;;;;;12.88;5.38;;;22.40;99.90;;;;;;4974304;28;20030;-79
2023/05/10 12:18:53;;;;;;;20.10;6.88;;;22.60;99.90;;;;;;4984057;23;20082;-78
2023/05/10 12:21:20;;;;;;;17.67;6.72;;;22.40;99.90;;;;;;5031687;28;20049;-79
2023/05/10 12:23:52;;;;;;;12.80;5.65;;;22.20;99.90;;;;;;5032562;28;20029;-78
2023/05/10 12:26:24;;;;;;;12.57;6.13;;;22.10;99.90;;;;;;5032522;28;20053;-77
2023/05/10 12:28:50;;;;;;;13.48;5.07;;;21.90;99.90;;;;;;5031351;28;20426;-78
2023/05/10 12:31:16;;;;;;;12.02;3.53;;;21.80;99.90;;;;;;5031278;28;20033;-77
2023/05/10 12:33:43;;;;;;;8.48;3.60;;;21.80;99.90;;;;;;5033080;28;20049;-78
2023/05/10 12:36:14;;;;;;;11.32;3.65;;;21.90;99.90;;;;;;5031641;28;20083;-76
2023/05/10 12:38:47;;;;;;;8.02;3.40;;;22.00;99.90;;;;;;5031135;28;20028;-79
2023/05/10 12:41:18;;;;;;;8.52;3.63;;;22.20;99.90;;;;;;5032944;28;20378;-79
2023/05/10 12:43:47;;;;;;;8.23;3.63;;;21.80;99.90;;;;;;5032296;28;20030;-77
2023/05/10 12:46:18;;;;;;;6.25;3.05;;;22.00;99.90;;;;;;5032096;28;20422;-77
2023/05/10 12:48:46;;;;;;;8.40;3.38;;;21.90;99.90;;;;;;5033003;28;20071;-76
2023/05/10 12:51:15;;;;;;;5.05;2.78;;;21.80;99.90;;;;;;5031860;28;20018;-77
2023/05/10 12:53:41;;;;;;;9.70;3.13;;;22.00;99.90;;;;;;5030967;28;20057;-77
2023/05/10 12:56:07;;;;;;;4.78;2.65;;;22.40;99.90;;;;;;5031759;28;20064;-78
2023/05/10 12:58:35;;;;;;;5.75;2.42;;;22.50;99.90;;;;;;5032140;28;20025;-78